Time;durP1;ratioP1;P1;durP2;ratioP2;P2;SDS_P1;SDS_P2;PMS_P1;PMS_P2;Temp;Humidity;BMP_temperature;BMP_pressure;BME280_temperature;BME280_humidity;BME280_pressure;Samples;Min_cycle;Max_cycle;Signal;HPM_P1;HPM_P2
2022/11/17 00:00:11;;;;;;;31.82;19.32;;;;;;;7.74;78.93;99405.46;1706112;83;21232;-57
2022/11/17 00:03:22;;;;;;;36.73;20.32;;;;;;;7.72;78.97;99398.02;1706078;84;21224;-58
2022/11/17 00:06:28;;;;;;;33.28;20.05;;;;;;;7.71;79.00;99395.47;1705978;84;21200;-58
2022/11/17 00:09:34;;;;;;;35.75;19.57;;;;;;;7.70;79.05;99393.75;1698678;83;21192;-58
2022/11/17 00:16:07;;;;;;;30.32;17.73;;;;;;;7.67;79.18;99391.39;1698668;83;21246;-59
2022/11/17 00:22:40;;;;;;;24.02;15.70;;;;;;;7.64;79.24;99388.00;1705741;83;21252;-58
2022/11/17 00:25:48;;;;;;;22.13;15.00;;;;;;;7.60;79.15;99385.83;1705953;84;21206;-59
2022/11/17 00:28:53;;;;;;;19.57;13.28;;;;;;;7.53;79.13;99378.89;1705805;82;21382;-58
2022/11/17 00:35:26;;;;;;;26.73;16.37;;;;;;;7.49;79.18;99373.99;1705678;84;21224;-58
2022/11/17 00:38:32;;;;;;;24.82;15.63;;;;;;;7.47;79.32;99370.09;1707174;80;21239;-60
2022/11/17 00:41:40;;;;;;;24.00;14.47;;;;;;;7.54;79.53;99372.94;1706059;84;21308;-58
2022/11/17 00:45:06;;;;;;;25.68;14.65;;;;;;;7.58;79.59;99363.36;1674369;84;21250;-58
2022/11/17 00:48:13;;;;;;;24.02;14.58;;;;;;;7.61;79.63;99359.77;1580054;90;21252;-58
2022/11/17 00:51:21;;;;;;;22.07;14.30;;;;;;;7.61;79.53;99358.95;1578074;89;21235;-59
2022/11/17 00:54:28;;;;;;;20.75;13.25;;;;;;;7.59;79.55;99356.91;1604710;88;21240;-58
2022/11/17 00:57:35;;;;;;;21.87;14.25;;;;;;;7.63;79.71;99348.19;1604972;88;21196;-58
2022/11/17 01:00:42;;;;;;;22.37;13.68;;;;;;;7.70;79.84;99342.86;1604908;89;21228;-58
2022/11/17 01:03:48;;;;;;;22.10;13.45;;;;;;;7.75;79.83;99340.44;1604989;88;21280;-59
2022/11/17 01:06:55;;;;;;;20.32;12.63;;;;;;;7.79;79.85;99339.03;1604946;88;21376;-58
2022/11/17 01:10:01;;;;;;;19.98;12.55;;;;;;;7.83;79.79;99338.16;1604848;89;21225;-59
2022/11/17 01:13:09;;;;;;;20.30;12.93;;;;;;;7.84;79.72;99336.61;1604983;88;21651;-58
2022/11/17 01:16:19;;;;;;;26.30;15.08;;;;;;;7.80;79.49;99338.52;1587938;89;21252;-59
2022/11/17 01:19:25;;;;;;;23.98;12.93;;;;;;;7.74;79.53;99331.91;1604980;88;21216;-58
2022/11/17 01:22:31;;;;;;;17.67;12.15;;;;;;;7.74;79.56;99327.83;1604907;88;21224;-59
2022/11/17 01:25:39;;;;;;;20.90;12.20;;;;;;;7.63;79.39;99323.68;1590148;89;21324;-59
2022/11/17 01:28:46;;;;;;;17.00;10.80;;;;;;;7.62;79.58;99322.50;1619375;87;21229;-59
2022/11/17 01:31:57;;;;;;;17.95;11.60;;;;;;;7.61;79.58;99323.55;1622392;87;21375;-58
2022/11/17 01:35:07;;;;;;;14.25;10.13;;;;;;;7.62;79.65;99312.97;1601730;88;21217;-58
2022/11/17 01:38:13;;;;;;;16.40;11.78;;;;;;;7.63;79.66;99307.84;1600714;88;21220;-59
2022/11/17 01:41:26;;;;;;;14.98;10.38;;;;;;;7.64;79.68;99306.83;1622284;88;21398;-58
2022/11/17 01:44:59;;;;;;;18.80;11.35;;;;;;;7.64;79.73;99304.11;1622463;88;21217;-59
2022/11/17 01:48:08;;;;;;;15.50;10.75;;;;;;;7.64;79.69;99303.57;1622573;84;21240;-58
2022/11/17 01:51:14;;;;;;;15.30;10.50;;;;;;;7.61;79.67;99304.48;1620549;88;21292;-59
2022/11/17 01:54:25;;;;;;;19.45;13.20;;;;;;;7.49;79.39;99305.42;1620567;88;21343;-58
2022/11/17 01:57:35;;;;;;;17.98;12.05;;;;;;;7.47;79.53;99307.97;1620504;88;21361;-59
2022/11/17 02:00:43;;;;;;;15.63;10.85;;;;;;;7.45;79.60;99302.71;1599343;88;21236;-59
2022/11/17 02:03:49;;;;;;;17.32;11.48;;;;;;;7.47;79.76;99302.53;1620594;88;21225;-59
2022/11/17 02:06:57;;;;;;;14.18;10.40;;;;;;;7.43;79.65;99300.71;1620502;88;21262;-59
2022/11/17 02:10:03;;;;;;;13.83;9.58;;;;;;;7.39;79.63;99303.95;1620626;88;21216;-57
2022/11/17 02:13:09;;;;;;;14.65;9.83;;;;;;;7.38;79.61;99305.84;1620560;87;21232;-59
2022/11/17 02:16:21;;;;;;;12.15;8.40;;;;;;;7.29;79.55;99305.55;1620560;88;21260;-59
2022/11/17 02:19:27;;;;;;;11.43;7.33;;;;;;;7.18;79.46;99310.05;1620531;88;21281;-58
2022/11/17 02:22:46;;;;;;;10.68;7.20;;;;;;;7.03;79.28;99311.88;1600044;88;21233;-59
2022/11/17 02:26:18;;;;;;;9.20;6.47;;;;;;;6.89;79.21;99302.27;1618085;88;21292;-58
2022/11/17 02:29:32;;;;;;;10.23;6.22;;;;;;;6.77;79.22;99294.19;1620791;88;21407;-59
2022/11/17 02:33:04;;;;;;;19.12;6.80;;;;;;;6.70;79.26;99292.69;1620552;88;21277;-59
2022/11/17 02:36:17;;;;;;;7.92;5.22;;;;;;;6.55;79.11;99299.88;1620629;88;21296;-58
2022/11/17 02:39:40;;;;;;;7.75;5.65;;;;;;;6.41;79.04;99297.91;1620546;88;21205;-59
2022/11/17 02:46:24;;;;;;;5.50;4.28;;;;;;;6.10;78.96;99310.05;1620544;88;21268;-58
2022/11/17 02:49:36;;;;;;;8.13;5.10;;;;;;;6.01;79.11;99315.18;1616775;83;21225;-59
2022/11/17 02:52:42;;;;;;;6.67;4.70;;;;;;;5.99;79.32;99316.39;1613437;89;21197;-59
2022/11/17 02:55:58;;;;;;;7.50;5.08;;;;;;;5.92;79.22;99316.72;1613442;89;21289;-59
2022/11/17 02:59:07;;;;;;;7.17;4.78;;;;;;;5.86;79.25;99311.49;1613466;89;21265;-59
2022/11/17 03:03:00;;;;;;;7.53;4.33;;;;;;;5.71;79.00;99308.23;1613523;89;21269;-59
2022/11/17 03:06:26;;;;;;;5.87;4.25;;;;;;;5.51;78.91;99305.04;1613488;89;21255;-59
2022/11/17 03:09:41;;;;;;;6.87;4.85;;;;;;;5.38;79.07;99296.55;1613505;87;21399;-58
2022/11/17 03:12:58;;;;;;;6.70;4.28;;;;;;;5.29;79.13;99298.08;1613459;89;21213;-59
2022/11/17 03:16:27;;;;;;;6.55;4.97;;;;;;;5.27;79.39;99296.89;1613483;89;21240;-58
2022/11/17 03:19:39;;;;;;;8.58;5.10;;;;;;;5.31;79.51;99302.30;1599308;89;21285;-59
2022/11/17 03:22:49;;;;;;;;;;;;;;;5.26;79.43;99307.91;1615952;89;21217;-58
2022/11/17 03:26:03;;;;;;;5.87;3.95;;;;;;;5.21;79.40;99307.56;1613519;89;20275;-59
2022/11/17 03:29:11;;;;;;;5.15;3.65;;;;;;;5.07;79.33;99313.16;1613497;88;21311;-58
2022/11/17 03:32:19;;;;;;;5.17;4.12;;;;;;;4.97;79.32;99321.94;1613456;89;21919;-60
2022/11/17 03:35:34;;;;;;;5.12;4.20;;;;;;;4.85;79.34;99321.06;1613611;89;21369;-58
2022/11/17 03:38:45;;;;;;;6.25;4.67;;;;;;;4.78;79.37;99329.50;1613578;89;21289;-58
2022/11/17 03:41:54;;;;;;;6.78;5.00;;;;;;;4.75;79.50;99324.42;1613557;89;21261;-59
2022/11/17 03:45:08;;;;;;;37.35;14.83;;;;;;;4.67;79.37;99327.95;1613433;88;21225;-58
2022/11/17 03:48:29;;;;;;;56.10;20.95;;;;;;;4.61;79.53;99318.61;1613534;89;21252;-58
2022/11/17 03:51:38;;;;;;;46.53;21.55;;;;;;;4.60;79.60;99315.56;1596511;90;21436;-59
2022/11/17 03:54:45;;;;;;;30.90;15.35;;;;;;;4.63;79.73;99310.31;1596476;90;21260;-58
2022/11/17 03:58:15;;;;;;;19.67;10.98;;;;;;;4.67;79.85;99318.97;1596511;90;21291;-59
2022/11/17 04:01:23;;;;;;;12.70;8.25;;;;;;;4.74;79.95;99314.60;1596607;88;21267;-58
2022/11/17 04:05:04;;;;;;;7.87;5.53;;;;;;;4.71;79.73;99329.31;1609509;88;21248;-59
2022/11/17 04:07:39;;;;;;;10.23;5.50;;;;;;;4.69;79.78;99327.79;1609406;89;21261;-58
2022/11/17 04:17:34;;;;;;;10.13;6.42;;;;;;;4.51;79.60;99331.46;1634656;86;21297;-58
2022/11/17 04:20:40;;;;;;;7.00;3.98;;;;;;;4.49;79.62;99331.27;1630075;86;22020;-60
2022/11/17 04:23:47;;;;;;;6.50;4.62;;;;;;;4.44;79.66;99329.05;1632677;86;21223;-59
2022/11/17 04:30:18;;;;;;;11.38;6.45;;;;;;;4.35;79.68;99324.61;1633012;86;21281;-57
2022/11/17 04:33:26;;;;;;;7.20;4.20;;;;;;;4.36;79.76;99316.81;1596468;88;21200;-57
2022/11/17 04:36:43;;;;;;;11.00;5.60;;;;;;;4.31;79.63;99319.16;1632111;88;21258;-56
2022/11/17 04:39:50;;;;;;;11.20;6.03;;;;;;;4.30;79.78;99307.14;1633868;86;21234;-57
2022/11/17 04:42:56;;;;;;;13.20;6.05;;;;;;;4.31;79.80;99301.55;1632973;87;21364;-58
2022/11/17 04:46:07;;;;;;;6.65;3.83;;;;;;;4.30;79.78;99310.70;1634248;86;21309;-56
2022/11/17 04:49:14;;;;;;;10.13;5.75;;;;;;;4.22;79.56;99308.45;1634072;86;21230;-57
2022/11/17 04:52:19;;;;;;;5.03;3.45;;;;;;;4.13;79.62;99307.58;1645587;85;21239;-56
2022/11/17 04:55:28;;;;;;;6.50;4.05;;;;;;;4.11;79.66;99327.20;1617428;88;21313;-57
2022/11/17 04:58:33;;;;;;;6.60;3.92;;;;;;;4.08;79.69;99330.72;1616816;88;21266;-57
2022/11/17 05:01:38;;;;;;;8.05;5.37;;;;;;;4.07;79.73;99338.02;1645580;86;21795;-57
2022/11/17 05:04:57;;;;;;;5.95;3.10;;;;;;;4.06;79.72;99328.70;1645665;87;21204;-57
2022/11/17 05:08:05;;;;;;;6.47;4.17;;;;;;;4.07;79.83;99340.72;1645642;87;21235;-56
2022/11/17 05:14:42;;;;;;;5.37;3.62;;;;;;;3.95;79.69;99343.34;1616642;88;21222;-56
2022/11/17 05:17:47;;;;;;;4.42;3.10;;;;;;;3.91;79.77;99337.05;1616520;88;21735;-58
2022/11/17 05:20:53;;;;;;;4.08;2.70;;;;;;;3.92;79.89;99355.84;1645601;87;21358;-56
2022/11/17 05:23:59;;;;;;;5.05;3.17;;;;;;;3.89;79.77;99359.36;1646836;86;21689;-57
2022/11/17 05:27:06;;;;;;;7.40;4.53;;;;;;;3.80;79.74;99361.19;1645579;87;21251;-57
2022/11/17 05:30:14;;;;;;;9.35;5.22;;;;;;;3.82;79.87;99358.31;1615410;88;21246;-56
2022/11/17 05:33:21;;;;;;;9.70;5.83;;;;;;;3.83;79.87;99358.16;1645256;87;21235;-57
2022/11/17 05:36:31;;;;;;;28.12;11.12;;;;;;;3.82;79.92;99362.38;1616666;88;21270;-56
2022/11/17 05:39:37;;;;;;;11.45;7.95;;;;;;;3.80;79.86;99359.83;1644616;87;21219;-57
2022/11/17 05:42:43;;;;;;;16.62;10.23;;;;;;;3.82;79.98;99369.14;1644214;87;21589;-57
2022/11/17 05:45:51;;;;;;;13.45;7.75;;;;;;;3.89;80.12;99372.41;1644273;87;21227;-57
2022/11/17 05:48:57;;;;;;;7.78;5.30;;;;;;;3.92;80.08;99372.09;1632319;86;21227;-57
2022/11/17 05:52:03;;;;;;;6.45;4.33;;;;;;;3.97;80.06;99377.02;1641918;83;21858;-57
2022/11/17 05:55:09;;;;;;;8.38;5.78;;;;;;;3.95;79.92;99371.77;1633413;86;21207;-57
2022/11/17 05:58:27;;;;;;;9.80;5.67;;;;;;;3.90;79.77;99378.67;1619204;87;21292;-57
2022/11/17 06:01:33;;;;;;;8.58;4.78;;;;;;;3.85;79.74;99381.86;1628860;87;21867;-60
2022/11/17 06:04:40;;;;;;;9.08;5.47;;;;;;;3.86;79.84;99383.55;1624228;87;21255;-58
2022/11/17 06:07:49;;;;;;;7.50;4.25;;;;;;;3.83;79.76;99381.16;1642418;87;21219;-58
2022/11/17 06:10:56;;;;;;;7.20;5.08;;;;;;;3.80;79.73;99381.48;1644015;86;21340;-58
2022/11/17 06:14:05;;;;;;;13.55;9.08;;;;;;;3.76;79.66;99384.14;1646877;85;21759;-57
2022/11/17 06:17:24;;;;;;;17.55;12.40;;;;;;;3.71;79.59;99376.16;1643649;86;21290;-57
2022/11/17 06:20:36;;;;;;;9.45;7.00;;;;;;;3.77;79.82;99360.15;1641517;87;21220;-58
2022/11/17 06:23:43;;;;;;;16.30;11.12;;;;;;;3.83;79.80;99361.36;1644204;86;21231;-57
2022/11/17 06:26:48;;;;;;;13.22;9.10;;;;;;;3.78;79.66;99361.84;1643209;86;21250;-57
2022/11/17 06:29:57;;;;;;;26.27;17.27;;;;;;;3.83;79.82;99366.27;1621320;85;21224;-58
2022/11/17 06:33:02;;;;;;;18.98;12.85;;;;;;;3.82;79.72;99359.14;1597019;88;21302;-57
2022/11/17 06:36:08;;;;;;;12.05;8.70;;;;;;;3.77;79.58;99353.38;1597406;89;21283;-56
2022/11/17 06:39:17;;;;;;;8.28;6.33;;;;;;;3.72;79.58;99355.70;1616667;88;21275;-57
2022/11/17 06:43:02;;;;;;;8.90;5.92;;;;;;;3.72;79.62;99353.50;1621663;87;21927;-57
2022/11/17 06:45:31;;;;;;;8.88;5.90;;;;;;;3.72;79.59;99354.84;1613634;88;21789;-56
2022/11/17 06:48:39;;;;;;;8.70;6.25;;;;;;;3.70;79.56;99349.59;1619697;88;21273;-57
2022/11/17 06:51:44;;;;;;;10.10;6.90;;;;;;;3.66;79.46;99348.72;1599187;88;21314;-57
2022/11/17 06:54:51;;;;;;;11.33;6.87;;;;;;;3.63;79.42;99349.86;1581184;89;21293;-57
2022/11/17 06:57:59;;;;;;;11.73;7.12;;;;;;;3.59;79.44;99351.20;1596641;88;21214;-58
2022/11/17 07:01:13;;;;;;;17.98;10.68;;;;;;;3.56;79.43;99346.11;1595092;89;21227;-58
2022/11/17 07:04:19;;;;;;;13.28;8.98;;;;;;;3.52;79.38;99360.94;1607044;88;21240;-57
2022/11/17 07:07:24;;;;;;;13.93;7.90;;;;;;;3.52;79.49;99358.23;1610418;88;21799;-58
2022/11/17 07:10:31;;;;;;;13.55;8.58;;;;;;;3.55;79.52;99359.80;1608884;88;21251;-56
2022/11/17 07:13:47;;;;;;;14.13;8.73;;;;;;;3.62;79.70;99359.50;1608906;89;21247;-57
2022/11/17 07:16:54;;;;;;;15.43;9.03;;;;;;;3.69;79.74;99363.28;1607714;89;21263;-57
2022/11/17 07:20:01;;;;;;;10.43;6.90;;;;;;;3.76;79.76;99358.43;1607539;89;21243;-57
2022/11/17 07:23:07;;;;;;;9.65;6.50;;;;;;;3.67;79.54;99360.73;1601537;88;21283;-57
2022/11/17 07:26:13;;;;;;;10.23;6.78;;;;;;;3.63;79.45;99362.56;1606391;87;21577;-57
2022/11/17 07:29:18;;;;;;;15.20;8.38;;;;;;;3.68;79.65;99362.42;1584480;88;21235;-57
2022/11/17 07:32:25;;;;;;;12.50;7.97;;;;;;;3.83;79.83;99358.65;1583299;89;21243;-57
2022/11/17 07:35:31;;;;;;;13.93;7.95;;;;;;;3.85;79.64;99356.15;1587563;89;21235;-56
2022/11/17 07:38:39;;;;;;;14.00;8.85;;;;;;;3.86;79.55;99353.77;1608314;89;21215;-58
2022/11/17 07:41:48;;;;;;;14.83;8.95;;;;;;;3.84;79.46;99354.43;1584197;89;21294;-57
2022/11/17 07:44:53;;;;;;;15.30;9.85;;;;;;;3.84;79.45;99363.91;1596517;88;21805;-57
2022/11/17 07:48:05;;;;;;;12.93;8.53;;;;;;;3.91;79.58;99373.11;1582774;89;21227;-57
2022/11/17 07:51:12;;;;;;;10.65;8.15;;;;;;;3.88;79.37;99366.66;1578064;90;21292;-57
2022/11/17 07:54:17;;;;;;;17.55;11.10;;;;;;;3.87;79.36;99355.47;1629437;83;21780;-60
2022/11/17 07:57:30;;;;;;;16.45;10.85;;;;;;;3.89;79.37;99358.88;1632487;86;21216;-60
2022/11/17 08:00:37;;;;;;;13.43;9.38;;;;;;;3.88;79.23;99361.73;1621415;87;21242;-61
2022/11/17 08:03:43;;;;;;;17.02;11.45;;;;;;;3.82;79.15;99370.50;1617430;88;21863;-61
2022/11/17 08:06:50;;;;;;;20.15;13.32;;;;;;;3.77;79.14;99363.34;1617609;88;21242;-60
2022/11/17 08:09:56;;;;;;;16.12;10.38;;;;;;;3.81;79.35;99377.75;1616881;87;21598;-60
2022/11/17 08:13:02;;;;;;;14.80;11.33;;;;;;;3.81;79.35;99384.52;1617601;88;21238;-61
2022/11/17 08:16:08;;;;;;;14.23;9.73;;;;;;;3.80;79.37;99376.06;1617980;87;21262;-60
2022/11/17 08:19:13;;;;;;;17.45;10.85;;;;;;;3.81;79.37;99379.60;1617641;88;21287;-60
2022/11/17 08:22:23;;;;;;;12.10;9.05;;;;;;;3.85;79.56;99380.52;1617391;87;21539;-60
2022/11/17 08:25:31;;;;;;;16.52;10.72;;;;;;;3.79;79.23;99378.41;1617756;87;21295;-60
2022/11/17 08:28:37;;;;;;;14.18;9.58;;;;;;;3.70;79.15;99383.42;1626925;87;21200;-60
2022/11/17 08:31:45;;;;;;;19.87;11.68;;;;;;;3.74;79.31;99384.79;1623475;86;21239;-60
2022/11/17 08:34:52;;;;;;;14.87;9.88;;;;;;;3.77;79.34;99390.41;1644559;86;21208;-60
2022/11/17 08:37:57;;;;;;;11.05;8.05;;;;;;;3.83;79.39;99374.89;1644620;86;21753;-60
2022/11/17 08:41:08;;;;;;;12.75;9.98;;;;;;;3.76;79.18;99380.08;1644905;86;21291;-61
2022/11/17 08:44:17;;;;;;;21.37;13.65;;;;;;;3.68;79.15;99374.60;1645516;87;21346;-59
2022/11/17 08:47:24;;;;;;;13.72;10.32;;;;;;;3.69;79.35;99374.97;1645144;86;21365;-60
2022/11/17 08:50:33;;;;;;;11.60;8.93;;;;;;;3.75;79.39;99363.50;1637986;85;21258;-58
2022/11/17 08:53:40;;;;;;;11.70;8.55;;;;;;;3.68;79.16;99384.07;1640585;85;21238;-59
2022/11/17 08:56:45;;;;;;;15.00;10.75;;;;;;;3.63;79.25;99380.16;1646169;82;21827;-58
2022/11/17 08:59:52;;;;;;;13.65;10.25;;;;;;;3.61;79.29;99365.92;1604163;89;21242;-58
2022/11/17 09:02:57;;;;;;;22.40;13.83;;;;;;;3.69;79.47;99377.67;1603951;88;21262;-58
2022/11/17 09:06:04;;;;;;;25.92;16.10;;;;;;;3.62;79.17;99367.61;1604160;89;21798;-59
2022/11/17 09:09:10;;;;;;;25.92;15.25;;;;;;;3.56;79.31;99375.01;1604661;89;21353;-58
2022/11/17 09:12:16;;;;;;;16.17;12.70;;;;;;;3.59;79.43;99372.84;1604028;88;21309;-60
2022/11/17 09:15:23;;;;;;;17.65;12.00;;;;;;;3.62;79.36;99376.59;1596616;88;21257;-59
2022/11/17 09:18:31;;;;;;;33.83;17.82;;;;;;;3.58;79.31;99380.62;1561133;87;21265;-59
2022/11/17 09:21:38;;;;;;;29.27;16.60;;;;;;;3.54;79.24;99373.81;1624262;87;21235;-58
2022/11/17 09:24:45;;;;;;;28.55;15.72;;;;;;;3.58;79.37;99374.36;1628406;86;21323;-59
2022/11/17 09:27:54;;;;;;;25.27;15.40;;;;;;;3.58;79.45;99376.56;1629859;86;21233;-59
2022/11/17 09:31:02;;;;;;;36.17;19.17;;;;;;;3.57;79.32;99380.27;1611148;87;21321;-60
2022/11/17 09:34:07;;;;;;;30.00;17.23;;;;;;;3.45;79.12;99373.89;1603914;88;21252;-59
2022/11/17 09:37:14;;;;;;;26.57;15.38;;;;;;;3.43;79.29;99375.90;1604542;88;21268;-58
2022/11/17 09:40:24;;;;;;;25.20;15.23;;;;;;;3.44;79.38;99366.27;1578617;89;21323;-58
2022/11/17 09:43:37;;;;;;;26.27;14.80;;;;;;;3.47;79.39;99374.11;1593213;89;21272;-58
2022/11/17 09:47:12;;;;;;;;;;;;;;;3.45;79.35;99382.88;1601542;89;21234;-59
2022/11/17 09:50:33;;;;;;;35.98;18.32;;;;;;;3.44;79.38;99379.80;1604361;87;20615;-57
2022/11/17 09:53:59;;;;;;;24.23;14.40;;;;;;;3.53;79.51;99382.09;1601360;88;21237;-57
2022/11/17 09:57:06;;;;;;;26.73;15.68;;;;;;;3.57;79.42;99386.20;1606478;84;21260;-58
2022/11/17 10:00:26;;;;;;;26.85;16.07;;;;;;;3.50;79.29;99376.99;1603870;88;21729;-59
2022/11/17 10:03:36;;;;;;;32.28;18.70;;;;;;;3.51;79.35;99374.13;1603408;88;21236;-58
2022/11/17 10:06:44;;;;;;;26.95;16.75;;;;;;;3.61;79.47;99372.20;1602846;88;21623;-60
2022/11/17 10:09:50;;;;;;;17.95;12.70;;;;;;;3.59;79.32;99370.14;1601596;89;21808;-60
2022/11/17 10:13:01;;;;;;;17.05;12.20;;;;;;;3.51;79.20;99383.59;1601591;88;21228;-57
2022/11/17 10:16:12;;;;;;;17.00;12.88;;;;;;;3.42;79.04;99381.83;1587942;89;21260;-57
2022/11/17 10:19:30;;;;;;;26.40;17.23;;;;;;;3.25;78.95;99379.95;1602905;89;21300;-57
2022/11/17 10:22:43;;;;;;;26.90;17.23;;;;;;;3.27;79.26;99386.06;1603170;88;21241;-58
2022/11/17 10:25:52;;;;;;;20.68;14.35;;;;;;;3.40;79.54;99391.95;1603701;89;22127;-59
2022/11/17 10:29:15;;;;;;;17.75;12.70;;;;;;;3.46;79.37;99392.67;1603815;88;21239;-57
2022/11/17 10:32:21;;;;;;;21.60;13.45;;;;;;;3.42;79.30;99398.55;1605293;89;21820;-57
2022/11/17 10:35:36;;;;;;;15.25;12.18;;;;;;;3.33;79.20;99398.14;1603647;88;21264;-58
2022/11/17 10:38:40;;;;;;;16.60;12.40;;;;;;;3.28;79.13;99404.02;1601199;88;21233;-58
2022/11/17 10:41:49;;;;;;;15.53;11.95;;;;;;;3.25;79.28;99408.88;1600687;88;21332;-58
2022/11/17 10:44:59;;;;;;;17.10;12.35;;;;;;;3.27;79.24;99415.81;1601933;87;21331;-58
2022/11/17 10:48:18;;;;;;;16.73;11.68;;;;;;;3.20;79.17;99412.04;1602826;89;21264;-57
2022/11/17 10:51:34;;;;;;;14.28;11.85;;;;;;;3.20;79.28;99421.50;1590530;88;21815;-57
2022/11/17 10:54:42;;;;;;;19.20;13.90;;;;;;;3.20;79.21;99426.05;1578365;89;21228;-58
2022/11/17 10:57:50;;;;;;;27.73;17.95;;;;;;;3.11;79.04;99420.22;1588078;84;21805;-59
2022/11/17 11:01:07;;;;;;;21.68;14.43;;;;;;;3.00;79.04;99407.74;1571979;89;21920;-57
2022/11/17 11:04:35;;;;;;;21.68;14.45;;;;;;;2.97;79.13;99405.34;1595199;89;21252;-58
2022/11/17 11:07:40;;;;;;;19.35;13.75;;;;;;;3.00;79.29;99404.55;1597000;88;21750;-57
2022/11/17 11:10:47;;;;;;;20.55;14.60;;;;;;;3.07;79.41;99395.34;1597338;88;21256;-57
2022/11/17 11:13:59;;;;;;;18.48;14.00;;;;;;;3.12;79.42;99402.48;1610463;88;21770;-58
2022/11/17 11:17:07;;;;;;;21.70;14.58;;;;;;;3.08;79.27;99405.13;1585774;89;21642;-58
2022/11/17 11:20:17;;;;;;;21.23;14.68;;;;;;;3.09;79.33;99399.57;1613054;88;21792;-58
2022/11/17 11:23:59;;;;;;;17.40;13.65;;;;;;;3.16;79.41;99407.92;1624639;86;21247;-57
2022/11/17 11:27:56;;;;;;;17.45;13.00;;;;;;;3.17;79.34;99406.94;1612422;87;21295;-56
2022/11/17 11:31:12;;;;;;;18.55;14.38;;;;;;;3.15;79.16;99404.89;1556336;89;21894;-57
2022/11/17 11:34:41;;;;;;;19.57;13.13;;;;;;;3.03;79.02;99393.92;1641043;87;21220;-57
2022/11/17 11:37:56;;;;;;;19.15;14.30;;;;;;;3.00;79.09;99394.23;1639818;87;21563;-58
2022/11/17 11:41:19;;;;;;;24.50;16.73;;;;;;;3.03;79.22;99392.08;1640558;86;21275;-57
2022/11/17 11:44:37;;;;;;;33.80;23.67;;;;;;;3.00;79.15;99388.33;1627567;86;21315;-56
2022/11/17 11:47:53;;;;;;;26.40;18.67;;;;;;;3.04;79.31;99395.64;1640537;86;21207;-58
2022/11/17 11:51:27;;;;;;;18.10;14.43;;;;;;;3.08;79.39;99394.31;1614074;88;21355;-58
2022/11/17 11:54:47;;;;;;;18.87;15.35;;;;;;;3.08;79.30;99399.23;1614247;87;21721;-59
2022/11/17 11:58:05;;;;;;;18.80;13.48;;;;;;;3.08;79.37;99397.02;1616174;84;21590;-58
2022/11/17 12:01:13;;;;;;;16.50;13.45;;;;;;;3.06;79.19;99395.83;1621232;87;21270;-59
2022/11/17 12:04:53;;;;;;;19.67;15.38;;;;;;;2.96;79.16;99392.36;1633927;87;21220;-59
2022/11/17 12:08:12;;;;;;;19.77;15.15;;;;;;;2.99;79.24;99403.35;1639775;86;21256;-59
2022/11/17 12:14:46;;;;;;;18.27;13.03;;;;;;;2.92;79.24;99403.11;1631974;87;21289;-59
2022/11/17 12:18:20;;;;;;;20.10;15.43;;;;;;;2.92;79.17;99402.25;1613199;88;21278;-59
2022/11/17 12:21:35;;;;;;;22.22;15.88;;;;;;;2.79;78.99;99405.31;1638600;86;21571;-59
2022/11/17 12:24:46;;;;;;;21.97;16.73;;;;;;;2.67;78.96;99408.36;1639216;87;21244;-59
2022/11/17 12:27:55;;;;;;;23.22;16.97;;;;;;;2.63;79.11;99401.58;1643639;86;21231;-57
2022/11/17 12:31:16;;;;;;;21.50;15.95;;;;;;;2.63;79.20;99397.52;1639824;87;21400;-56
2022/11/17 12:34:31;;;;;;;24.25;17.20;;;;;;;2.63;79.22;99396.17;1618189;87;21266;-59
2022/11/17 12:37:38;;;;;;;23.20;16.93;;;;;;;2.62;79.28;99400.72;1590052;90;21613;-62
2022/11/17 12:40:56;;;;;;;25.88;18.15;;;;;;;2.60;79.24;99405.41;1617399;87;21295;-57
2022/11/17 12:44:08;;;;;;;22.42;16.25;;;;;;;2.60;79.26;99401.88;1620440;87;21785;-58
2022/11/17 12:47:26;;;;;;;23.90;16.62;;;;;;;2.62;79.35;99396.66;1628318;87;21250;-57
2022/11/17 12:50:41;;;;;;;22.58;16.90;;;;;;;2.61;79.32;99411.67;1643665;87;21804;-58
2022/11/17 12:54:10;;;;;;;21.70;15.15;;;;;;;2.65;79.45;99414.41;1616631;87;21226;-59
2022/11/17 12:57:19;;;;;;;20.55;16.05;;;;;;;2.63;79.33;99410.51;1616499;87;21303;-58
2022/11/17 13:00:30;;;;;;;22.27;16.12;;;;;;;2.49;79.12;99411.00;1643001;83;21204;-57
2022/11/17 13:03:51;;;;;;;24.55;16.75;;;;;;;2.50;79.31;99411.86;1629715;86;21602;-58
2022/11/17 13:07:08;;;;;;;24.92;16.48;;;;;;;2.54;79.41;99406.50;1636006;86;21217;-58
2022/11/17 13:10:39;;;;;;;30.92;20.68;;;;;;;2.52;79.36;99409.88;1628761;86;21987;-58
2022/11/17 13:14:21;;;;;;;24.15;17.23;;;;;;;2.57;79.52;99399.48;1651640;86;21576;-58
2022/11/17 13:17:26;;;;;;;24.25;16.50;;;;;;;2.66;79.60;99402.62;1634548;86;21212;-58
2022/11/17 13:20:35;;;;;;;22.40;15.90;;;;;;;2.66;79.48;99395.88;1624378;87;21232;-57
2022/11/17 13:23:45;;;;;;;22.55;16.80;;;;;;;2.62;79.32;99401.20;1633323;86;21228;-58
2022/11/17 13:26:51;;;;;;;22.48;16.17;;;;;;;2.57;79.31;99395.42;1612146;87;21307;-58
2022/11/17 13:29:57;;;;;;;21.45;16.15;;;;;;;2.54;79.25;99403.80;1624433;87;21204;-57
2022/11/17 13:33:06;;;;;;;21.87;16.12;;;;;;;2.53;79.34;99411.56;1626403;86;21265;-57
2022/11/17 13:36:16;;;;;;;22.55;17.02;;;;;;;2.52;79.29;99413.92;1622471;87;21228;-58
2022/11/17 13:39:26;;;;;;;22.02;17.10;;;;;;;2.55;79.49;99401.47;1621612;87;21215;-56
2022/11/17 13:42:36;;;;;;;24.43;16.30;;;;;;;2.59;79.47;99409.13;1632211;86;21212;-58
2022/11/17 13:45:44;;;;;;;23.57;16.10;;;;;;;2.55;79.36;99407.70;1634061;86;21820;-57
2022/11/17 13:48:53;;;;;;;22.35;15.28;;;;;;;2.47;79.26;99410.81;1622640;87;21602;-57
2022/11/17 13:52:00;;;;;;;20.75;16.00;;;;;;;2.44;79.29;99396.27;1626140;86;21788;-56
2022/11/17 13:55:06;;;;;;;25.15;17.70;;;;;;;2.40;79.29;99399.75;1624356;86;21240;-57
2022/11/17 13:58:16;;;;;;;22.55;16.65;;;;;;;2.43;79.38;99403.99;1617420;87;21828;-59
2022/11/17 14:01:36;;;;;;;21.40;17.00;;;;;;;2.48;79.53;99394.46;1604393;86;21242;-59
2022/11/17 14:04:41;;;;;;;22.00;16.30;;;;;;;2.53;79.54;99387.25;1577438;89;21951;-57
2022/11/17 14:07:49;;;;;;;24.07;17.80;;;;;;;2.52;79.50;99393.67;1587629;89;21629;-57
2022/11/17 14:10:55;;;;;;;23.02;17.30;;;;;;;2.53;79.47;99391.31;1585821;89;21248;-58
2022/11/17 14:14:04;;;;;;;23.70;16.30;;;;;;;2.48;79.35;99391.76;1619998;87;21346;-57
2022/11/17 14:17:25;;;;;;;24.40;16.55;;;;;;;2.48;79.39;99375.55;1626953;85;21770;-57
2022/11/17 14:20:38;;;;;;;22.55;16.40;;;;;;;2.42;79.31;99373.95;1571543;91;21300;-57
2022/11/17 14:23:44;;;;;;;20.65;15.65;;;;;;;2.42;79.34;99372.59;1596301;88;21800;-56
2022/11/17 14:26:52;;;;;;;22.45;16.30;;;;;;;2.43;79.41;99360.78;1618833;87;21226;-58
2022/11/17 14:29:59;;;;;;;22.95;16.52;;;;;;;2.46;79.54;99368.59;1620384;87;21644;-57
2022/11/17 14:33:04;;;;;;;26.15;18.30;;;;;;;2.46;79.51;99363.19;1614577;87;21397;-57
2022/11/17 14:36:11;;;;;;;56.05;25.72;;;;;;;2.44;79.45;99361.16;1613868;87;21385;-57
2022/11/17 14:39:24;;;;;;;43.25;21.73;;;;;;;2.45;79.48;99351.55;1613593;87;21342;-58
2022/11/17 14:42:33;;;;;;;48.98;23.67;;;;;;;2.42;79.38;99353.70;1594981;88;21244;-58
2022/11/17 14:45:40;;;;;;;44.05;24.32;;;;;;;2.39;79.42;99357.56;1621220;88;21266;-58
2022/11/17 14:48:49;;;;;;;25.88;17.07;;;;;;;2.43;79.51;99351.34;1620809;87;21756;-58
2022/11/17 14:51:58;;;;;;;28.27;17.60;;;;;;;2.49;79.58;99350.77;1595411;88;21269;-58
2022/11/17 14:55:03;;;;;;;31.05;19.25;;;;;;;2.46;79.46;99344.28;1613327;87;21547;-58
2022/11/17 14:58:08;;;;;;;24.00;17.07;;;;;;;2.48;79.48;99342.29;1613014;87;21223;-57
2022/11/17 15:01:22;;;;;;;23.60;17.42;;;;;;;2.50;79.53;99347.05;1599317;86;21920;-57
2022/11/17 15:04:31;;;;;;;21.35;15.63;;;;;;;2.50;79.41;99348.39;1588972;89;21887;-57
2022/11/17 15:07:39;;;;;;;33.10;23.50;;;;;;;2.45;79.32;99344.80;1614912;87;21236;-57
2022/11/17 15:10:54;;;;;;;29.57;20.55;;;;;;;2.39;79.31;99341.84;1585062;88;21683;-56
2022/11/17 15:13:59;;;;;;;25.68;17.52;;;;;;;2.40;79.39;99336.78;1623284;88;21368;-59
2022/11/17 15:17:05;;;;;;;26.33;17.65;;;;;;;2.42;79.49;99332.09;1623456;87;21303;-59
2022/11/17 15:20:14;;;;;;;20.48;15.13;;;;;;;2.47;79.55;99321.70;1624864;87;21874;-59
2022/11/17 15:23:19;;;;;;;20.57;15.40;;;;;;;2.52;79.61;99334.25;1650176;87;21196;-59